CheckWX is a tool to help pilots better visualize weather data.  It is not intended as a substitute for an official pre-flight weather briefing.

12:27:58 UTC

KROC METAR
Greater Rochester International Airport
Rochester, New York, USA
Current

3 hours ago

KROC 060954Z 00000KT 10SM CLR 00/M02 A3013 RMK AO2 SLP212 T00001017
Observed
Apr-6 @ 09:54 UTC
Visibility
Flight Rules
VFR
Cloud Levels
  • Clear skies
Temperature
C / 32°F
Dewpoint
-2°C / 28°F
Humidity
87%
Altimeter
30.13" Hg
Pressure
1020.32 hPa
Previous

4 hours ago

KROC 060854Z 26004KT 10SM CLR 00/M02 A3013 RMK AO2 SLP212 T00001022 51006
Observed
Apr-6 @ 08:54 UTC
Wind
  • 260° at 4 KTS
Visibility
Flight Rules
VFR
Cloud Levels
  • Clear skies
Temperature
C / 32°F
Dewpoint
-2°C / 28°F
Humidity
87%
Altimeter
30.13" Hg
Pressure
1020.32 hPa
Previous

5 hours ago

KROC 060754Z 28004KT 10SM CLR 01/M02 A3013 RMK AO2 SLP210 T00061017
Observed
Apr-6 @ 07:54 UTC
Wind
  • 280° at 4 KTS
Visibility
Flight Rules
VFR
Cloud Levels
  • Clear skies
Temperature
C / 34°F
Dewpoint
-2°C / 28°F
Humidity
81%
Altimeter
30.13" Hg
Pressure
1020.32 hPa